sensor_id;sensor_type;location;lat;lon;timestamp;pressure;altitude;pressure_sealevel;temperature;humidity
62025;BME280;47978;49.118;12.146;2022-11-02T00:01:17;98062.63;;;11.21;98.65
62025;BME280;47978;49.118;12.146;2022-11-02T00:03:45;98065.91;;;11.23;98.75
62025;BME280;47978;49.118;12.146;2022-11-02T00:06:13;98058.56;;;11.13;99.21
62025;BME280;47978;49.118;12.146;2022-11-02T00:08:40;98070.53;;;11.09;99.72
62025;BME280;47978;49.118;12.146;2022-11-02T00:11:07;98068.34;;;11.06;99.72
62025;BME280;47978;49.118;12.146;2022-11-02T00:13:33;98068.63;;;11.04;100.00
62025;BME280;47978;49.118;12.146;2022-11-02T00:16:00;98073.66;;;11.02;100.00
62025;BME280;47978;49.118;12.146;2022-11-02T00:18:28;98084.91;;;11.11;100.00
62025;BME280;47978;49.118;12.146;2022-11-02T00:20:55;98076.38;;;11.07;100.00
62025;BME280;47978;49.118;12.146;2022-11-02T00:23:23;98081.66;;;11.03;100.00
62025;BME280;47978;49.118;12.146;2022-11-02T00:25:51;98079.13;;;11.07;100.00
62025;BME280;47978;49.118;12.146;2022-11-02T00:28:18;98086.31;;;11.08;100.00
62025;BME280;47978;49.118;12.146;2022-11-02T00:30:45;98086.16;;;11.18;100.00
62025;BME280;47978;49.118;12.146;2022-11-02T00:33:12;98092.13;;;11.31;99.34
62025;BME280;47978;49.118;12.146;2022-11-02T00:35:39;98095.44;;;11.33;99.26
62025;BME280;47978;49.118;12.146;2022-11-02T00:38:06;98098.50;;;11.31;99.57
62025;BME280;47978;49.118;12.146;2022-11-02T00:40:34;98099.94;;;11.23;99.87
62025;BME280;47978;49.118;12.146;2022-11-02T00:43:01;98093.31;;;11.24;100.00
62025;BME280;47978;49.118;12.146;2022-11-02T00:45:28;98107.38;;;11.28;99.48
62025;BME280;47978;49.118;12.146;2022-11-02T00:47:54;98098.25;;;11.28;99.77
62025;BME280;47978;49.118;12.146;2022-11-02T00:50:21;98103.63;;;11.19;99.82
62025;BME280;47978;49.118;12.146;2022-11-02T00:52:47;98101.38;;;11.21;100.00
62025;BME280;47978;49.118;12.146;2022-11-02T00:55:14;98096.91;;;11.25;99.71
62025;BME280;47978;49.118;12.146;2022-11-02T00:57:42;98095.19;;;11.29;99.48
62025;BME280;47978;49.118;12.146;2022-11-02T01:00:10;98098.50;;;11.31;99.37
62025;BME280;47978;49.118;12.146;2022-11-02T01:02:37;98081.72;;;11.22;99.76
62025;BME280;47978;49.118;12.146;2022-11-02T01:05:05;98090.56;;;11.24;99.93
62025;BME280;47978;49.118;12.146;2022-11-02T01:07:32;98094.13;;;11.25;99.58
62025;BME280;47978;49.118;12.146;2022-11-02T01:09:59;98097.25;;;11.18;99.45
62025;BME280;47978;49.118;12.146;2022-11-02T01:12:26;98094.72;;;11.22;100.00
62025;BME280;47978;49.118;12.146;2022-11-02T01:14:53;98093.38;;;11.19;100.00
62025;BME280;47978;49.118;12.146;2022-11-02T01:17:20;98098.09;;;11.19;100.00
62025;BME280;47978;49.118;12.146;2022-11-02T01:19:49;98097.25;;;11.18;100.00
62025;BME280;47978;49.118;12.146;2022-11-02T01:22:15;98104.69;;;11.23;100.00
62025;BME280;47978;49.118;12.146;2022-11-02T01:24:42;98096.69;;;11.21;99.47
62025;BME280;47978;49.118;12.146;2022-11-02T01:27:08;98091.19;;;11.16;100.00
62025;BME280;47978;49.118;12.146;2022-11-02T01:29:35;98090.28;;;11.21;100.00
62025;BME280;47978;49.118;12.146;2022-11-02T01:32:03;98087.63;;;11.16;99.43
62025;BME280;47978;49.118;12.146;2022-11-02T01:34:30;98080.88;;;11.22;99.92
62025;BME280;47978;49.118;12.146;2022-11-02T01:36:57;98075.19;;;11.13;100.00
62025;BME280;47978;49.118;12.146;2022-11-02T01:39:23;98068.47;;;11.19;99.99
62025;BME280;47978;49.118;12.146;2022-11-02T01:41:50;98078.47;;;11.15;99.84
62025;BME280;47978;49.118;12.146;2022-11-02T01:44:28;98081.47;;;11.19;100.00
62025;BME280;47978;49.118;12.146;2022-11-02T01:46:58;98073.69;;;11.21;100.00
62025;BME280;47978;49.118;12.146;2022-11-02T01:49:27;98074.75;;;11.25;99.41
62025;BME280;47978;49.118;12.146;2022-11-02T01:52:03;98084.31;;;11.14;99.40
62025;BME280;47978;49.118;12.146;2022-11-02T01:54:33;98079.38;;;11.11;100.00
62025;BME280;47978;49.118;12.146;2022-11-02T01:57:03;98071.22;;;11.19;100.00
62025;BME280;47978;49.118;12.146;2022-11-02T01:59:34;98074.81;;;11.20;99.84
62025;BME280;47978;49.118;12.146;2022-11-02T02:02:02;98074.22;;;11.23;99.86
62025;BME280;47978;49.118;12.146;2022-11-02T02:04:33;98072.91;;;11.15;99.69
62025;BME280;47978;49.118;12.146;2022-11-02T02:07:00;98078.28;;;11.07;100.00
62025;BME280;47978;49.118;12.146;2022-11-02T02:09:27;98078.22;;;11.12;100.00
62025;BME280;47978;49.118;12.146;2022-11-02T02:11:55;98074.09;;;11.09;100.00
62025;BME280;47978;49.118;12.146;2022-11-02T02:14:21;98079.97;;;11.08;100.00
62025;BME280;47978;49.118;12.146;2022-11-02T02:16:59;98073.06;;;11.05;100.00
62025;BME280;47978;49.118;12.146;2022-11-02T02:19:37;98084.75;;;11.21;100.00
62025;BME280;47978;49.118;12.146;2022-11-02T02:22:18;98073.94;;;11.24;100.00
62025;BME280;47978;49.118;12.146;2022-11-02T02:24:51;98082.94;;;11.11;99.97
62025;BME280;47978;49.118;12.146;2022-11-02T02:27:27;98083.19;;;11.15;100.00
62025;BME280;47978;49.118;12.146;2022-11-02T02:30:07;98084.47;;;11.22;99.94
62025;BME280;47978;49.118;12.146;2022-11-02T02:32:39;98080.28;;;11.25;99.97
62025;BME280;47978;49.118;12.146;2022-11-02T02:35:14;98084.47;;;11.22;99.87
62025;BME280;47978;49.118;12.146;2022-11-02T02:37:49;98091.91;;;11.27;99.70
62025;BME280;47978;49.118;12.146;2022-11-02T02:40:20;98095.78;;;11.26;99.31
62025;BME280;47978;49.118;12.146;2022-11-02T02:42:52;98096.09;;;11.24;99.85
62025;BME280;47978;49.118;12.146;2022-11-02T02:45:24;98097.44;;;11.27;99.52
62025;BME280;47978;49.118;12.146;2022-11-02T02:47:57;98096.91;;;11.25;99.68
62025;BME280;47978;49.118;12.146;2022-11-02T02:50:29;98096.97;;;11.20;99.94
62025;BME280;47978;49.118;12.146;2022-11-02T02:53:00;98100.28;;;11.22;99.64
62025;BME280;47978;49.118;12.146;2022-11-02T02:55:31;98099.63;;;11.30;99.21
62025;BME280;47978;49.118;12.146;2022-11-02T02:58:00;98101.31;;;11.26;99.19
62025;BME280;47978;49.118;12.146;2022-11-02T03:00:32;98098.00;;;11.24;99.33
62025;BME280;47978;49.118;12.146;2022-11-02T03:03:00;98104.81;;;11.13;99.48
62025;BME280;47978;49.118;12.146;2022-11-02T03:05:30;98107.00;;;11.16;100.00
62025;BME280;47978;49.118;12.146;2022-11-02T03:08:02;98101.50;;;11.11;99.50
62025;BME280;47978;49.118;12.146;2022-11-02T03:10:33;98103.16;;;11.12;99.71
62025;BME280;47978;49.118;12.146;2022-11-02T03:13:09;98099.91;;;11.05;100.00
62025;BME280;47978;49.118;12.146;2022-11-02T03:15:44;98096.38;;;10.99;100.00
62025;BME280;47978;49.118;12.146;2022-11-02T03:18:18;98101.03;;;11.03;99.78
62025;BME280;47978;49.118;12.146;2022-11-02T03:20:56;98093.03;;;11.02;99.57
62025;BME280;47978;49.118;12.146;2022-11-02T03:23:28;98095.31;;;10.95;99.93
62025;BME280;47978;49.118;12.146;2022-11-02T03:26:01;98093.50;;;10.85;100.00
62025;BME280;47978;49.118;12.146;2022-11-02T03:28:40;98093.81;;;10.78;100.00
62025;BME280;47978;49.118;12.146;2022-11-02T03:31:13;98102.69;;;10.75;100.00
62025;BME280;47978;49.118;12.146;2022-11-02T03:33:45;98102.38;;;10.82;100.00
62025;BME280;47978;49.118;12.146;2022-11-02T03:36:15;98105.19;;;10.77;100.00
62025;BME280;47978;49.118;12.146;2022-11-02T03:38:45;98114.84;;;10.79;100.00
62025;BME280;47978;49.118;12.146;2022-11-02T03:41:15;98121.44;;;10.84;100.00
62025;BME280;47978;49.118;12.146;2022-11-02T03:43:43;98115.63;;;10.85;100.00
62025;BME280;47978;49.118;12.146;2022-11-02T03:46:15;98123.97;;;10.80;100.00
62025;BME280;47978;49.118;12.146;2022-11-02T03:48:45;98125.69;;;10.76;100.00
62025;BME280;47978;49.118;12.146;2022-11-02T03:51:14;98120.16;;;10.76;100.00
62025;BME280;47978;49.118;12.146;2022-11-02T03:53:46;98121.59;;;10.68;100.00
62025;BME280;47978;49.118;12.146;2022-11-02T03:56:18;98116.69;;;10.60;100.00
62025;BME280;47978;49.118;12.146;2022-11-02T03:58:46;98119.72;;;10.58;100.00
62025;BME280;47978;49.118;12.146;2022-11-02T04:01:15;98125.63;;;10.52;99.67
62025;BME280;47978;49.118;12.146;2022-11-02T04:03:44;98117.34;;;10.47;98.91
62025;BME280;47978;49.118;12.146;2022-11-02T04:06:11;98124.78;;;10.51;98.45
62025;BME280;47978;49.118;12.146;2022-11-02T04:08:39;98117.91;;;10.49;98.46
62025;BME280;47978;49.118;12.146;2022-11-02T04:11:06;98122.06;;;10.46;97.94
62025;BME280;47978;49.118;12.146;2022-11-02T04:13:33;98118.28;;;10.37;98.13
62025;BME280;47978;49.118;12.146;2022-11-02T04:16:00;98114.44;;;10.33;97.97
62025;BME280;47978;49.118;12.146;2022-11-02T04:18:28;98123.59;;;10.28;98.19
62025;BME280;47978;49.118;12.146;2022-11-02T04:20:54;98123.88;;;10.27;98.30
62025;BME280;47978;49.118;12.146;2022-11-02T04:23:21;98129.69;;;10.25;97.91
62025;BME280;47978;49.118;12.146;2022-11-02T04:25:51;98132.72;;;10.24;97.75
62025;BME280;47978;49.118;12.146;2022-11-02T04:28:18;98134.66;;;10.28;97.33
62025;BME280;47978;49.118;12.146;2022-11-02T04:30:45;98144.59;;;10.24;97.45
62025;BME280;47978;49.118;12.146;2022-11-02T04:33:11;98149.31;;;10.29;97.61
62025;BME280;47978;49.118;12.146;2022-11-02T04:35:39;98154.31;;;10.22;98.17
62025;BME280;47978;49.118;12.146;2022-11-02T04:38:06;98153.78;;;10.20;98.34
62025;BME280;47978;49.118;12.146;2022-11-02T04:40:33;98154.81;;;10.34;97.37
62025;BME280;47978;49.118;12.146;2022-11-02T04:43:00;98151.72;;;10.35;98.03
62025;BME280;47978;49.118;12.146;2022-11-02T04:45:26;98147.91;;;10.31;98.19
62025;BME280;47978;49.118;12.146;2022-11-02T04:47:58;98149.03;;;10.30;98.80
62025;BME280;47978;49.118;12.146;2022-11-02T04:50:25;98148.66;;;10.42;98.24
62025;BME280;47978;49.118;12.146;2022-11-02T04:52:55;98151.22;;;10.33;98.15
62025;BME280;47978;49.118;12.146;2022-11-02T04:55:22;98157.19;;;10.46;98.15
62025;BME280;47978;49.118;12.146;2022-11-02T04:57:48;98150.25;;;10.48;97.80
62025;BME280;47978;49.118;12.146;2022-11-02T05:00:16;98153.00;;;10.53;97.60
62025;BME280;47978;49.118;12.146;2022-11-02T05:02:45;98149.72;;;10.46;97.32
62025;BME280;47978;49.118;12.146;2022-11-02T05:05:11;98140.47;;;10.61;97.33
62025;BME280;47978;49.118;12.146;2022-11-02T05:07:38;98134.50;;;10.49;97.34
62025;BME280;47978;49.118;12.146;2022-11-02T05:10:07;98143.59;;;10.49;97.67
62025;BME280;47978;49.118;12.146;2022-11-02T05:12:34;98142.84;;;10.39;97.51
62025;BME280;47978;49.118;12.146;2022-11-02T05:15:00;98146.19;;;10.35;98.18
62025;BME280;47978;49.118;12.146;2022-11-02T05:17:27;98144.31;;;10.31;98.58
62025;BME280;47978;49.118;12.146;2022-11-02T05:19:53;98139.38;;;10.28;98.69
62025;BME280;47978;49.118;12.146;2022-11-02T05:22:20;98142.03;;;10.38;98.20
62025;BME280;47978;49.118;12.146;2022-11-02T05:24:47;98138.22;;;10.34;98.40
62025;BME280;47978;49.118;12.146;2022-11-02T05:27:15;98127.94;;;10.40;97.73
62025;BME280;47978;49.118;12.146;2022-11-02T05:29:41;98130.50;;;10.31;97.64
62025;BME280;47978;49.118;12.146;2022-11-02T05:32:08;98138.97;;;10.45;96.61
62025;BME280;47978;49.118;12.146;2022-11-02T05:34:35;98156.97;;;10.37;97.08
62025;BME280;47978;49.118;12.146;2022-11-02T05:37:01;98158.97;;;10.31;97.18
62025;BME280;47978;49.118;12.146;2022-11-02T05:39:28;98159.84;;;10.22;97.79
62025;BME280;47978;49.118;12.146;2022-11-02T05:41:54;98155.75;;;10.14;98.10
62025;BME280;47978;49.118;12.146;2022-11-02T05:44:22;98158.97;;;10.26;97.59
62025;BME280;47978;49.118;12.146;2022-11-02T05:46:49;98171.16;;;10.25;97.67
62025;BME280;47978;49.118;12.146;2022-11-02T05:49:15;98171.97;;;10.26;98.02
62025;BME280;47978;49.118;12.146;2022-11-02T05:51:42;98170.50;;;10.39;97.60
62025;BME280;47978;49.118;12.146;2022-11-02T05:54:09;98175.59;;;10.61;96.30
62025;BME280;47978;49.118;12.146;2022-11-02T05:56:35;98180.06;;;10.56;96.00
62025;BME280;47978;49.118;12.146;2022-11-02T05:59:02;98193.63;;;10.53;96.27
62025;BME280;47978;49.118;12.146;2022-11-02T06:01:30;98185.31;;;10.53;96.63
62025;BME280;47978;49.118;12.146;2022-11-02T06:03:57;98185.69;;;10.41;96.29
62025;BME280;47978;49.118;12.146;2022-11-02T06:06:23;98200.03;;;10.48;96.86
62025;BME280;47978;49.118;12.146;2022-11-02T06:08:50;98200.03;;;10.48;96.46
62025;BME280;47978;49.118;12.146;2022-11-02T06:11:16;98201.66;;;10.49;96.52
62025;BME280;47978;49.118;12.146;2022-11-02T06:13:43;98208.09;;;10.45;95.64
62025;BME280;47978;49.118;12.146;2022-11-02T06:16:11;98212.84;;;10.34;97.02
62025;BME280;47978;49.118;12.146;2022-11-02T06:18:39;98214.69;;;10.49;96.08
62025;BME280;47978;49.118;12.146;2022-11-02T06:21:06;98216.09;;;10.41;95.95
62025;BME280;47978;49.118;12.146;2022-11-02T06:23:33;98215.53;;;10.44;96.53
62025;BME280;47978;49.118;12.146;2022-11-02T06:26:00;98210.34;;;10.38;96.44
62025;BME280;47978;49.118;12.146;2022-11-02T06:28:28;98202.75;;;10.53;96.23
62025;BME280;47978;49.118;12.146;2022-11-02T06:30:55;98194.75;;;10.52;96.11
62025;BME280;47978;49.118;12.146;2022-11-02T06:33:22;98212.72;;;10.49;96.55
62025;BME280;47978;49.118;12.146;2022-11-02T06:35:51;98225.78;;;10.44;97.08
62025;BME280;47978;49.118;12.146;2022-11-02T06:38:18;98225.94;;;10.57;96.08
62025;BME280;47978;49.118;12.146;2022-11-02T06:40:52;98224.38;;;10.46;95.94
62025;BME280;47978;49.118;12.146;2022-11-02T06:43:19;98223.81;;;10.44;96.09
62025;BME280;47978;49.118;12.146;2022-11-02T06:45:46;98232.63;;;10.51;96.31
62025;BME280;47978;49.118;12.146;2022-11-02T06:48:13;98231.25;;;10.54;96.01
62025;BME280;47978;49.118;12.146;2022-11-02T06:50:39;98234.78;;;10.60;94.48
62025;BME280;47978;49.118;12.146;2022-11-02T06:53:07;98231.78;;;10.56;93.98
62025;BME280;47978;49.118;12.146;2022-11-02T06:55:34;98232.84;;;10.60;93.49
62025;BME280;47978;49.118;12.146;2022-11-02T06:58:00;98238.94;;;10.62;93.02
62025;BME280;47978;49.118;12.146;2022-11-02T07:00:27;98248.44;;;10.46;93.67
62025;BME280;47978;49.118;12.146;2022-11-02T07:03:01;98252.84;;;10.47;93.12
62025;BME280;47978;49.118;12.146;2022-11-02T07:05:28;98256.94;;;10.54;93.49
62025;BME280;47978;49.118;12.146;2022-11-02T07:07:55;98256.69;;;10.51;92.73
62025;BME280;47978;49.118;12.146;2022-11-02T07:10:23;98268.91;;;10.45;93.01
62025;BME280;47978;49.118;12.146;2022-11-02T07:12:51;98274.16;;;10.41;92.65
62025;BME280;47978;49.118;12.146;2022-11-02T07:15:18;98282.75;;;10.45;92.96
62025;BME280;47978;49.118;12.146;2022-11-02T07:17:45;98277.69;;;10.52;91.65
62025;BME280;47978;49.118;12.146;2022-11-02T07:20:11;98288.88;;;10.37;92.00
62025;BME280;47978;49.118;12.146;2022-11-02T07:22:38;98282.22;;;10.38;92.66
62025;BME280;47978;49.118;12.146;2022-11-02T07:25:05;98290.28;;;10.29;92.59
62025;BME280;47978;49.118;12.146;2022-11-02T07:27:38;98288.56;;;10.38;92.07
62025;BME280;47978;49.118;12.146;2022-11-02T07:30:06;98300.75;;;10.37;92.00
62025;BME280;47978;49.118;12.146;2022-11-02T07:32:38;98291.63;;;10.37;91.25
62025;BME280;47978;49.118;12.146;2022-11-02T07:35:06;98293.84;;;10.34;92.00
62025;BME280;47978;49.118;12.146;2022-11-02T07:37:32;98290.53;;;10.32;92.66
62025;BME280;47978;49.118;12.146;2022-11-02T07:39:59;98284.72;;;10.39;92.33
62025;BME280;47978;49.118;12.146;2022-11-02T07:42:26;98288.00;;;10.41;91.93
62025;BME280;47978;49.118;12.146;2022-11-02T07:44:54;98286.91;;;10.42;91.96
62025;BME280;47978;49.118;12.146;2022-11-02T07:47:20;98284.72;;;10.39;91.51
62025;BME280;47978;49.118;12.146;2022-11-02T07:49:47;98296.00;;;10.43;92.41
62025;BME280;47978;49.118;12.146;2022-11-02T07:52:13;98296.22;;;10.56;91.66
62025;BME280;47978;49.118;12.146;2022-11-02T07:54:40;98290.06;;;10.65;91.15
62025;BME280;47978;49.118;12.146;2022-11-02T07:57:10;98289.84;;;10.56;90.70
62025;BME280;47978;49.118;12.146;2022-11-02T07:59:36;98296.22;;;10.56;90.96
62025;BME280;47978;49.118;12.146;2022-11-02T08:02:05;98291.25;;;10.53;91.29
62025;BME280;47978;49.118;12.146;2022-11-02T08:04:32;98295.34;;;10.61;90.95
62025;BME280;47978;49.118;12.146;2022-11-02T08:06:58;98306.69;;;10.60;90.71
62025;BME280;47978;49.118;12.146;2022-11-02T08:09:25;98299.00;;;10.51;91.14
62025;BME280;47978;49.118;12.146;2022-11-02T08:11:52;98297.41;;;10.40;91.74
62025;BME280;47978;49.118;12.146;2022-11-02T08:14:18;98298.78;;;10.43;91.55
62025;BME280;47978;49.118;12.146;2022-11-02T08:16:45;98298.41;;;10.60;91.14
62025;BME280;47978;49.118;12.146;2022-11-02T08:19:13;98300.34;;;10.59;90.96
62025;BME280;47978;49.118;12.146;2022-11-02T08:21:39;98307.75;;;10.64;90.37
62025;BME280;47978;49.118;12.146;2022-11-02T08:24:06;98304.16;;;10.68;91.03
62025;BME280;47978;49.118;12.146;2022-11-02T08:26:33;98303.03;;;10.69;89.95
62025;BME280;47978;49.118;12.146;2022-11-02T08:29:01;98303.53;;;10.82;89.80
62025;BME280;47978;49.118;12.146;2022-11-02T08:31:28;98299.91;;;10.81;90.16
62025;BME280;47978;49.118;12.146;2022-11-02T08:33:56;98298.72;;;10.92;88.45
62025;BME280;47978;49.118;12.146;2022-11-02T08:36:24;98293.00;;;10.78;88.96
62025;BME280;47978;49.118;12.146;2022-11-02T08:38:50;98284.19;;;10.76;89.44
62025;BME280;47978;49.118;12.146;2022-11-02T08:41:17;98293.00;;;10.78;89.48
62025;BME280;47978;49.118;12.146;2022-11-02T08:43:43;98284.69;;;10.78;89.54
62025;BME280;47978;49.118;12.146;2022-11-02T08:46:10;98286.59;;;10.88;89.62
62025;BME280;47978;49.118;12.146;2022-11-02T08:48:42;98289.94;;;10.85;89.92
62025;BME280;47978;49.118;12.146;2022-11-02T08:51:09;98291.53;;;10.91;89.98
62025;BME280;47978;49.118;12.146;2022-11-02T08:53:37;98288.06;;;11.10;88.73
62025;BME280;47978;49.118;12.146;2022-11-02T08:56:03;98296.66;;;11.08;89.12
62025;BME280;47978;49.118;12.146;2022-11-02T08:58:30;98294.38;;;11.15;89.19
62025;BME280;47978;49.118;12.146;2022-11-02T09:00:57;98292.72;;;11.14;89.48
62025;BME280;47978;49.118;12.146;2022-11-02T09:03:23;98291.56;;;11.20;89.67
62025;BME280;47978;49.118;12.146;2022-11-02T09:05:56;98300.88;;;11.30;89.32
62025;BME280;47978;49.118;12.146;2022-11-02T09:08:23;98290.00;;;11.38;87.25
62025;BME280;47978;49.118;12.146;2022-11-02T09:10:59;98279.41;;;11.45;87.13
62025;BME280;47978;49.118;12.146;2022-11-02T09:13:26;98287.19;;;11.43;87.51
62025;BME280;47978;49.118;12.146;2022-11-02T09:15:56;98283.09;;;11.65;87.15
62025;BME280;47978;49.118;12.146;2022-11-02T09:18:23;98278.44;;;11.60;86.95
62025;BME280;47978;49.118;12.146;2022-11-02T09:20:50;98280.44;;;11.55;86.96
62025;BME280;47978;49.118;12.146;2022-11-02T09:23:18;98283.06;;;11.70;85.88
62025;BME280;47978;49.118;12.146;2022-11-02T09:25:45;98277.34;;;11.85;84.93
62025;BME280;47978;49.118;12.146;2022-11-02T09:28:13;98274.53;;;11.90;84.42
62025;BME280;47978;49.118;12.146;2022-11-02T09:30:40;98274.69;;;11.99;84.46
62025;BME280;47978;49.118;12.146;2022-11-02T09:33:07;98274.53;;;11.90;85.13
62025;BME280;47978;49.118;12.146;2022-11-02T09:35:36;98271.28;;;12.07;85.81
62025;BME280;47978;49.118;12.146;2022-11-02T09:38:03;98272.84;;;12.13;85.66
62025;BME280;47978;49.118;12.146;2022-11-02T09:40:35;98271.97;;;12.18;84.79
62025;BME280;47978;49.118;12.146;2022-11-02T09:43:04;98272.25;;;12.17;84.44
62025;BME280;47978;49.118;12.146;2022-11-02T09:45:36;98270.63;;;12.15;84.53
62025;BME280;47978;49.118;12.146;2022-11-02T09:48:09;98275.94;;;12.31;84.58
62025;BME280;47978;49.118;12.146;2022-11-02T09:50:48;98278.44;;;12.51;83.31
62025;BME280;47978;49.118;12.146;2022-11-02T09:53:26;98274.78;;;12.56;82.63
62025;BME280;47978;49.118;12.146;2022-11-02T09:55:58;98282.94;;;12.66;81.36
62025;BME280;47978;49.118;12.146;2022-11-02T09:58:32;98278.06;;;12.77;80.41
62025;BME280;47978;49.118;12.146;2022-11-02T10:01:07;98280.91;;;12.91;80.44
62025;BME280;47978;49.118;12.146;2022-11-02T10:03:46;98289.34;;;13.18;79.03
62025;BME280;47978;49.118;12.146;2022-11-02T10:06:18;98285.91;;;13.26;79.00
62025;BME280;47978;49.118;12.146;2022-11-02T10:08:51;98283.75;;;13.37;78.17
62025;BME280;47978;49.118;12.146;2022-11-02T10:11:29;98277.31;;;13.56;77.88
62025;BME280;47978;49.118;12.146;2022-11-02T10:14:02;98278.69;;;13.72;76.85
62025;BME280;47978;49.118;12.146;2022-11-02T10:16:35;98280.84;;;13.89;77.27
62025;BME280;47978;49.118;12.146;2022-11-02T10:19:09;98272.28;;;13.99;75.73
62025;BME280;47978;49.118;12.146;2022-11-02T10:21:38;98266.63;;;14.04;76.53
62025;BME280;47978;49.118;12.146;2022-11-02T10:24:11;98270.50;;;14.31;76.13
62025;BME280;47978;49.118;12.146;2022-11-02T10:26:41;98260.28;;;14.54;74.45
62025;BME280;47978;49.118;12.146;2022-11-02T10:29:14;98269.16;;;14.56;74.26
62025;BME280;47978;49.118;12.146;2022-11-02T10:31:44;98266.56;;;14.59;75.14
62025;BME280;47978;49.118;12.146;2022-11-02T10:34:19;98264.56;;;14.74;75.29
62025;BME280;47978;49.118;12.146;2022-11-02T10:36:55;98272.94;;;14.96;72.43
62025;BME280;47978;49.118;12.146;2022-11-02T10:39:31;98260.97;;;14.96;73.20
62025;BME280;47978;49.118;12.146;2022-11-02T10:42:16;98264.09;;;14.94;72.69
62025;BME280;47978;49.118;12.146;2022-11-02T10:45:02;98271.19;;;15.00;71.88
62025;BME280;47978;49.118;12.146;2022-11-02T10:47:38;98266.25;;;14.97;71.05
62025;BME280;47978;49.118;12.146;2022-11-02T10:50:16;98274.38;;;14.94;67.23
62025;BME280;47978;49.118;12.146;2022-11-02T10:52:46;98282.56;;;14.90;67.32
62025;BME280;47978;49.118;12.146;2022-11-02T10:55:19;98281.34;;;15.05;67.11
62025;BME280;47978;49.118;12.146;2022-11-02T10:57:48;98283.50;;;15.08;67.14
62025;BME280;47978;49.118;12.146;2022-11-02T11:00:28;98282.31;;;15.00;66.11
62025;BME280;47978;49.118;12.146;2022-11-02T11:03:08;98290.84;;;15.04;67.09
62025;BME280;47978;49.118;12.146;2022-11-02T11:05:41;98290.03;;;15.03;67.16
62025;BME280;47978;49.118;12.146;2022-11-02T11:08:27;98282.56;;;14.90;67.56
62025;BME280;47978;49.118;12.146;2022-11-02T11:11:08;98287.59;;;14.88;68.60
62025;BME280;47978;49.118;12.146;2022-11-02T11:13:35;98294.38;;;14.73;68.42
62025;BME280;47978;49.118;12.146;2022-11-02T11:16:47;98291.94;;;14.58;70.68
62025;BME280;47978;49.118;12.146;2022-11-02T11:19:21;98291.38;;;14.70;70.49
62025;BME280;47978;49.118;12.146;2022-11-02T11:22:23;98293.13;;;14.66;70.16
62025;BME280;47978;49.118;12.146;2022-11-02T11:24:50;98295.25;;;14.82;69.10
62025;BME280;47978;49.118;12.146;2022-11-02T11:27:18;98289.44;;;14.70;68.87
62025;BME280;47978;49.118;12.146;2022-11-02T11:29:51;98295.53;;;14.58;69.42
62025;BME280;47978;49.118;12.146;2022-11-02T11:32:20;98288.53;;;14.61;68.82
62025;BME280;47978;49.118;12.146;2022-11-02T11:34:57;98284.59;;;14.62;69.33
62025;BME280;47978;49.118;12.146;2022-11-02T11:37:25;98283.78;;;14.34;69.27
62025;BME280;47978;49.118;12.146;2022-11-02T11:39:56;98289.03;;;14.49;68.96
62025;BME280;47978;49.118;12.146;2022-11-02T11:42:26;98286.66;;;14.56;68.68
62025;BME280;47978;49.118;12.146;2022-11-02T11:45:00;98284.56;;;14.76;68.49
62025;BME280;47978;49.118;12.146;2022-11-02T11:47:30;98273.06;;;14.69;67.60
62025;BME280;47978;49.118;12.146;2022-11-02T11:50:02;98272.84;;;14.65;67.24
62025;BME280;47978;49.118;12.146;2022-11-02T11:53:07;98267.84;;;14.76;66.84
62025;BME280;47978;49.118;12.146;2022-11-02T11:55:45;98265.31;;;14.66;67.03
62025;BME280;47978;49.118;12.146;2022-11-02T11:58:15;98260.88;;;14.65;67.24
62025;BME280;47978;49.118;12.146;2022-11-02T12:00:41;98258.72;;;14.61;67.42
62025;BME280;47978;49.118;12.146;2022-11-02T12:03:10;98260.25;;;14.68;67.75
62025;BME280;47978;49.118;12.146;2022-11-02T12:05:47;98258.03;;;14.56;68.25
62025;BME280;47978;49.118;12.146;2022-11-02T12:08:32;98257.97;;;14.70;66.99
62025;BME280;47978;49.118;12.146;2022-11-02T12:11:12;98251.16;;;14.76;67.02
62025;BME280;47978;49.118;12.146;2022-11-02T12:13:54;98260.03;;;14.78;67.55
62025;BME280;47978;49.118;12.146;2022-11-02T12:16:30;98253.69;;;14.64;67.33
62025;BME280;47978;49.118;12.146;2022-11-02T12:19:14;98255.72;;;14.72;67.16
62025;BME280;47978;49.118;12.146;2022-11-02T12:21:57;98252.66;;;14.82;67.08
62025;BME280;47978;49.118;12.146;2022-11-02T12:24:37;98258.88;;;15.01;67.03
62025;BME280;47978;49.118;12.146;2022-11-02T12:27:18;98247.94;;;15.05;64.55
62025;BME280;47978;49.118;12.146;2022-11-02T12:30:04;98252.50;;;15.01;64.18
62025;BME280;47978;49.118;12.146;2022-11-02T12:32:54;98250.00;;;14.99;63.90
62025;BME280;47978;49.118;12.146;2022-11-02T12:41:03;98257.19;;;15.14;64.28
62025;BME280;47978;49.118;12.146;2022-11-02T12:43:38;98260.78;;;15.15;63.68
62025;BME280;47978;49.118;12.146;2022-11-02T12:46:15;98263.19;;;15.07;63.28
62025;BME280;47978;49.118;12.146;2022-11-02T12:48:55;98266.38;;;14.92;63.24
62025;BME280;47978;49.118;12.146;2022-11-02T12:51:25;98264.56;;;14.96;64.43
62025;BME280;47978;49.118;12.146;2022-11-02T12:53:57;98262.31;;;14.98;64.17
62025;BME280;47978;49.118;12.146;2022-11-02T12:56:28;98263.81;;;15.04;64.22
62025;BME280;47978;49.118;12.146;2022-11-02T12:58:57;98266.72;;;14.99;63.16
62025;BME280;47978;49.118;12.146;2022-11-02T13:01:29;98262.53;;;14.88;62.82
62025;BME280;47978;49.118;12.146;2022-11-02T13:04:00;98260.91;;;14.87;63.53
62025;BME280;47978;49.118;12.146;2022-11-02T13:06:34;98260.31;;;14.76;63.43
62025;BME280;47978;49.118;12.146;2022-11-02T13:09:05;98260.53;;;14.80;64.05